sensor_id;sensor_type;location;lat;lon;timestamp;P1;durP1;ratioP1;P2;durP2;ratioP2
81619;SDS011;71028;53.410;6.710;2024-01-30T00:00:13;20.73;;;11.95;;
81619;SDS011;71028;53.410;6.710;2024-01-30T00:02:40;19.85;;;11.52;;
81619;SDS011;71028;53.410;6.710;2024-01-30T00:05:06;19.33;;;12.02;;
81619;SDS011;71028;53.410;6.710;2024-01-30T00:07:32;18.70;;;11.15;;
81619;SDS011;71028;53.410;6.710;2024-01-30T00:09:58;19.33;;;11.32;;
81619;SDS011;71028;53.410;6.710;2024-01-30T00:12:24;17.27;;;11.85;;
81619;SDS011;71028;53.410;6.710;2024-01-30T00:14:51;20.38;;;11.77;;
81619;SDS011;71028;53.410;6.710;2024-01-30T00:17:17;18.45;;;12.02;;
81619;SDS011;71028;53.410;6.710;2024-01-30T00:19:44;18.48;;;11.35;;
81619;SDS011;71028;53.410;6.710;2024-01-30T00:22:10;18.38;;;11.52;;
81619;SDS011;71028;53.410;6.710;2024-01-30T00:24:36;17.80;;;11.20;;
81619;SDS011;71028;53.410;6.710;2024-01-30T00:27:02;22.73;;;12.68;;
81619;SDS011;71028;53.410;6.710;2024-01-30T00:29:28;17.50;;;11.98;;
81619;SDS011;71028;53.410;6.710;2024-01-30T00:31:56;19.15;;;11.52;;
81619;SDS011;71028;53.410;6.710;2024-01-30T00:34:22;20.98;;;12.27;;
81619;SDS011;71028;53.410;6.710;2024-01-30T00:36:48;16.70;;;10.98;;
81619;SDS011;71028;53.410;6.710;2024-01-30T00:39:14;20.13;;;11.07;;
81619;SDS011;71028;53.410;6.710;2024-01-30T00:41:40;19.98;;;11.82;;
81619;SDS011;71028;53.410;6.710;2024-01-30T00:44:07;19.40;;;11.25;;
81619;SDS011;71028;53.410;6.710;2024-01-30T00:46:33;23.10;;;12.27;;
81619;SDS011;71028;53.410;6.710;2024-01-30T00:48:59;21.23;;;12.43;;
81619;SDS011;71028;53.410;6.710;2024-01-30T00:51:25;21.02;;;12.02;;
81619;SDS011;71028;53.410;6.710;2024-01-30T00:53:51;19.65;;;12.00;;
81619;SDS011;71028;53.410;6.710;2024-01-30T00:56:17;20.05;;;11.57;;
81619;SDS011;71028;53.410;6.710;2024-01-30T00:58:43;20.08;;;12.00;;
81619;SDS011;71028;53.410;6.710;2024-01-30T01:01:09;19.27;;;11.57;;
81619;SDS011;71028;53.410;6.710;2024-01-30T01:03:36;18.38;;;11.73;;
81619;SDS011;71028;53.410;6.710;2024-01-30T01:06:02;20.52;;;12.05;;
81619;SDS011;71028;53.410;6.710;2024-01-30T01:08:28;18.20;;;12.57;;
81619;SDS011;71028;53.410;6.710;2024-01-30T01:10:54;19.98;;;11.10;;
81619;SDS011;71028;53.410;6.710;2024-01-30T01:13:20;18.45;;;11.40;;
81619;SDS011;71028;53.410;6.710;2024-01-30T01:15:46;19.95;;;12.30;;
81619;SDS011;71028;53.410;6.710;2024-01-30T01:18:12;19.48;;;12.27;;
81619;SDS011;71028;53.410;6.710;2024-01-30T01:20:38;19.67;;;11.95;;
81619;SDS011;71028;53.410;6.710;2024-01-30T01:23:04;18.88;;;11.25;;
81619;SDS011;71028;53.410;6.710;2024-01-30T01:25:30;21.80;;;11.40;;
81619;SDS011;71028;53.410;6.710;2024-01-30T01:27:56;19.00;;;11.20;;
81619;SDS011;71028;53.410;6.710;2024-01-30T01:30:22;19.02;;;11.73;;
81619;SDS011;71028;53.410;6.710;2024-01-30T01:32:48;21.55;;;11.65;;
81619;SDS011;71028;53.410;6.710;2024-01-30T01:35:24;19.23;;;10.80;;
81619;SDS011;71028;53.410;6.710;2024-01-30T01:37:51;23.00;;;12.75;;
81619;SDS011;71028;53.410;6.710;2024-01-30T01:40:26;20.77;;;11.15;;
81619;SDS011;71028;53.410;6.710;2024-01-30T01:42:53;17.20;;;11.25;;
81619;SDS011;71028;53.410;6.710;2024-01-30T01:45:19;24.13;;;12.50;;
81619;SDS011;71028;53.410;6.710;2024-01-30T01:47:47;23.55;;;12.55;;
81619;SDS011;71028;53.410;6.710;2024-01-30T01:50:13;18.23;;;11.85;;
81619;SDS011;71028;53.410;6.710;2024-01-30T01:52:44;20.85;;;12.18;;
81619;SDS011;71028;53.410;6.710;2024-01-30T01:55:11;20.42;;;12.60;;
81619;SDS011;71028;53.410;6.710;2024-01-30T01:57:37;18.20;;;12.02;;
81619;SDS011;71028;53.410;6.710;2024-01-30T02:00:03;17.38;;;11.07;;
81619;SDS011;71028;53.410;6.710;2024-01-30T02:02:34;20.15;;;11.85;;
81619;SDS011;71028;53.410;6.710;2024-01-30T02:05:01;20.73;;;12.75;;
81619;SDS011;71028;53.410;6.710;2024-01-30T02:07:30;21.25;;;11.98;;
81619;SDS011;71028;53.410;6.710;2024-01-30T02:09:56;20.60;;;11.88;;
81619;SDS011;71028;53.410;6.710;2024-01-30T02:12:22;20.40;;;12.50;;
81619;SDS011;71028;53.410;6.710;2024-01-30T02:14:48;21.00;;;12.05;;
81619;SDS011;71028;53.410;6.710;2024-01-30T02:17:15;20.85;;;12.45;;
81619;SDS011;71028;53.410;6.710;2024-01-30T02:19:41;19.50;;;12.27;;
81619;SDS011;71028;53.410;6.710;2024-01-30T02:22:07;23.23;;;13.20;;
81619;SDS011;71028;53.410;6.710;2024-01-30T02:24:33;21.73;;;11.90;;
81619;SDS011;71028;53.410;6.710;2024-01-30T02:26:59;20.77;;;11.68;;
81619;SDS011;71028;53.410;6.710;2024-01-30T02:29:25;18.30;;;11.38;;
81619;SDS011;71028;53.410;6.710;2024-01-30T02:31:51;23.13;;;11.70;;
81619;SDS011;71028;53.410;6.710;2024-01-30T02:34:18;20.08;;;11.85;;
81619;SDS011;71028;53.410;6.710;2024-01-30T02:36:44;20.80;;;12.73;;
81619;SDS011;71028;53.410;6.710;2024-01-30T02:39:10;19.90;;;12.27;;
81619;SDS011;71028;53.410;6.710;2024-01-30T02:41:36;18.95;;;12.02;;
81619;SDS011;71028;53.410;6.710;2024-01-30T02:44:03;20.95;;;13.18;;
81619;SDS011;71028;53.410;6.710;2024-01-30T02:46:29;19.38;;;12.20;;
81619;SDS011;71028;53.410;6.710;2024-01-30T02:48:55;20.60;;;12.85;;
81619;SDS011;71028;53.410;6.710;2024-01-30T02:51:21;21.20;;;13.23;;
81619;SDS011;71028;53.410;6.710;2024-01-30T02:53:47;17.65;;;12.35;;
81619;SDS011;71028;53.410;6.710;2024-01-30T02:56:13;19.42;;;11.90;;
81619;SDS011;71028;53.410;6.710;2024-01-30T02:58:39;19.10;;;11.45;;
81619;SDS011;71028;53.410;6.710;2024-01-30T03:01:06;23.20;;;11.57;;
81619;SDS011;71028;53.410;6.710;2024-01-30T03:03:32;19.60;;;10.90;;
81619;SDS011;71028;53.410;6.710;2024-01-30T03:06:00;19.55;;;11.23;;
81619;SDS011;71028;53.410;6.710;2024-01-30T03:08:27;19.15;;;11.85;;
81619;SDS011;71028;53.410;6.710;2024-01-30T03:10:53;19.27;;;11.88;;
81619;SDS011;71028;53.410;6.710;2024-01-30T03:13:19;19.95;;;12.00;;
81619;SDS011;71028;53.410;6.710;2024-01-30T03:15:45;20.15;;;11.70;;
81619;SDS011;71028;53.410;6.710;2024-01-30T03:18:12;19.30;;;12.15;;
81619;SDS011;71028;53.410;6.710;2024-01-30T03:20:38;20.13;;;11.38;;
81619;SDS011;71028;53.410;6.710;2024-01-30T03:23:04;19.30;;;11.63;;
81619;SDS011;71028;53.410;6.710;2024-01-30T03:25:30;19.85;;;11.60;;
81619;SDS011;71028;53.410;6.710;2024-01-30T03:27:56;19.67;;;12.07;;
81619;SDS011;71028;53.410;6.710;2024-01-30T03:30:22;20.42;;;11.77;;
81619;SDS011;71028;53.410;6.710;2024-01-30T03:32:48;21.85;;;11.43;;
81619;SDS011;71028;53.410;6.710;2024-01-30T03:35:15;16.75;;;11.50;;
81619;SDS011;71028;53.410;6.710;2024-01-30T03:37:41;19.88;;;11.73;;
81619;SDS011;71028;53.410;6.710;2024-01-30T03:40:07;21.17;;;12.05;;
81619;SDS011;71028;53.410;6.710;2024-01-30T03:42:33;17.40;;;11.00;;
81619;SDS011;71028;53.410;6.710;2024-01-30T03:44:59;19.30;;;11.60;;
81619;SDS011;71028;53.410;6.710;2024-01-30T03:47:25;19.60;;;11.77;;
81619;SDS011;71028;53.410;6.710;2024-01-30T03:49:51;21.35;;;12.32;;
81619;SDS011;71028;53.410;6.710;2024-01-30T03:52:17;18.88;;;12.20;;
81619;SDS011;71028;53.410;6.710;2024-01-30T03:54:43;21.45;;;11.85;;
81619;SDS011;71028;53.410;6.710;2024-01-30T03:57:09;22.67;;;12.32;;
81619;SDS011;71028;53.410;6.710;2024-01-30T03:59:35;23.77;;;12.00;;
81619;SDS011;71028;53.410;6.710;2024-01-30T04:02:01;23.02;;;12.27;;
81619;SDS011;71028;53.410;6.710;2024-01-30T04:04:27;19.23;;;12.23;;
81619;SDS011;71028;53.410;6.710;2024-01-30T04:06:53;23.83;;;11.05;;
81619;SDS011;71028;53.410;6.710;2024-01-30T04:09:19;20.63;;;11.25;;
81619;SDS011;71028;53.410;6.710;2024-01-30T04:11:45;17.13;;;10.82;;
81619;SDS011;71028;53.410;6.710;2024-01-30T04:14:11;19.65;;;12.40;;
81619;SDS011;71028;53.410;6.710;2024-01-30T04:16:37;21.17;;;12.43;;
81619;SDS011;71028;53.410;6.710;2024-01-30T04:19:03;21.40;;;11.65;;
81619;SDS011;71028;53.410;6.710;2024-01-30T04:21:29;21.20;;;11.40;;
81619;SDS011;71028;53.410;6.710;2024-01-30T04:23:55;17.35;;;11.20;;
81619;SDS011;71028;53.410;6.710;2024-01-30T04:26:21;18.08;;;11.13;;
81619;SDS011;71028;53.410;6.710;2024-01-30T04:28:47;19.25;;;11.35;;
81619;SDS011;71028;53.410;6.710;2024-01-30T04:31:13;17.75;;;10.32;;
81619;SDS011;71028;53.410;6.710;2024-01-30T04:33:39;20.25;;;12.60;;
81619;SDS011;71028;53.410;6.710;2024-01-30T04:36:07;21.85;;;11.57;;
81619;SDS011;71028;53.410;6.710;2024-01-30T04:38:35;18.52;;;11.55;;
81619;SDS011;71028;53.410;6.710;2024-01-30T04:41:01;20.58;;;11.18;;
81619;SDS011;71028;53.410;6.710;2024-01-30T04:43:27;19.83;;;11.48;;
81619;SDS011;71028;53.410;6.710;2024-01-30T04:45:53;20.45;;;11.85;;
81619;SDS011;71028;53.410;6.710;2024-01-30T04:48:19;19.90;;;11.00;;
81619;SDS011;71028;53.410;6.710;2024-01-30T04:50:45;20.83;;;12.05;;
81619;SDS011;71028;53.410;6.710;2024-01-30T04:53:11;17.63;;;11.05;;
81619;SDS011;71028;53.410;6.710;2024-01-30T04:55:37;18.10;;;10.68;;
81619;SDS011;71028;53.410;6.710;2024-01-30T04:58:03;18.40;;;11.38;;
81619;SDS011;71028;53.410;6.710;2024-01-30T05:00:29;21.98;;;11.38;;
81619;SDS011;71028;53.410;6.710;2024-01-30T05:02:55;19.67;;;12.43;;
81619;SDS011;71028;53.410;6.710;2024-01-30T05:05:21;18.92;;;11.77;;
81619;SDS011;71028;53.410;6.710;2024-01-30T05:07:47;18.45;;;11.70;;
81619;SDS011;71028;53.410;6.710;2024-01-30T05:10:13;20.27;;;12.25;;
81619;SDS011;71028;53.410;6.710;2024-01-30T05:12:39;20.67;;;12.30;;
81619;SDS011;71028;53.410;6.710;2024-01-30T05:15:06;16.98;;;11.38;;
81619;SDS011;71028;53.410;6.710;2024-01-30T05:17:32;22.33;;;10.98;;
81619;SDS011;71028;53.410;6.710;2024-01-30T05:19:58;20.60;;;10.95;;
81619;SDS011;71028;53.410;6.710;2024-01-30T05:22:24;17.55;;;10.40;;
81619;SDS011;71028;53.410;6.710;2024-01-30T05:24:50;20.27;;;10.80;;
81619;SDS011;71028;53.410;6.710;2024-01-30T05:27:16;18.65;;;11.75;;
81619;SDS011;71028;53.410;6.710;2024-01-30T05:29:42;17.45;;;10.60;;
81619;SDS011;71028;53.410;6.710;2024-01-30T05:32:08;19.60;;;11.50;;
81619;SDS011;71028;53.410;6.710;2024-01-30T05:34:35;20.25;;;11.15;;
81619;SDS011;71028;53.410;6.710;2024-01-30T05:37:01;18.27;;;11.00;;
81619;SDS011;71028;53.410;6.710;2024-01-30T05:39:27;19.90;;;11.70;;
81619;SDS011;71028;53.410;6.710;2024-01-30T05:41:53;20.40;;;11.13;;
81619;SDS011;71028;53.410;6.710;2024-01-30T05:44:19;16.77;;;9.95;;
81619;SDS011;71028;53.410;6.710;2024-01-30T05:46:45;20.10;;;10.93;;
81619;SDS011;71028;53.410;6.710;2024-01-30T05:49:11;19.45;;;11.85;;
81619;SDS011;71028;53.410;6.710;2024-01-30T05:51:37;18.08;;;9.68;;
81619;SDS011;71028;53.410;6.710;2024-01-30T05:54:03;17.60;;;10.50;;
81619;SDS011;71028;53.410;6.710;2024-01-30T05:56:29;18.00;;;10.10;;
81619;SDS011;71028;53.410;6.710;2024-01-30T05:58:55;16.33;;;9.88;;
81619;SDS011;71028;53.410;6.710;2024-01-30T06:01:21;16.70;;;9.98;;
81619;SDS011;71028;53.410;6.710;2024-01-30T06:03:47;16.90;;;10.23;;
81619;SDS011;71028;53.410;6.710;2024-01-30T06:06:13;17.77;;;10.52;;
81619;SDS011;71028;53.410;6.710;2024-01-30T06:08:39;20.27;;;10.00;;
81619;SDS011;71028;53.410;6.710;2024-01-30T06:11:05;17.13;;;9.43;;
81619;SDS011;71028;53.410;6.710;2024-01-30T06:13:31;18.05;;;10.23;;
81619;SDS011;71028;53.410;6.710;2024-01-30T06:15:58;17.38;;;9.32;;
81619;SDS011;71028;53.410;6.710;2024-01-30T06:18:24;18.33;;;9.75;;
81619;SDS011;71028;53.410;6.710;2024-01-30T06:20:52;15.07;;;9.45;;
81619;SDS011;71028;53.410;6.710;2024-01-30T06:23:18;15.38;;;9.70;;
81619;SDS011;71028;53.410;6.710;2024-01-30T06:25:44;17.67;;;9.80;;
81619;SDS011;71028;53.410;6.710;2024-01-30T06:28:10;17.42;;;9.98;;
81619;SDS011;71028;53.410;6.710;2024-01-30T06:30:36;18.67;;;10.60;;
81619;SDS011;71028;53.410;6.710;2024-01-30T06:33:02;18.98;;;10.90;;
81619;SDS011;71028;53.410;6.710;2024-01-30T06:35:28;21.52;;;10.65;;
81619;SDS011;71028;53.410;6.710;2024-01-30T06:37:54;16.48;;;9.65;;
81619;SDS011;71028;53.410;6.710;2024-01-30T06:40:20;17.85;;;10.45;;
81619;SDS011;71028;53.410;6.710;2024-01-30T06:42:46;15.75;;;10.05;;
81619;SDS011;71028;53.410;6.710;2024-01-30T06:45:12;16.23;;;8.95;;
81619;SDS011;71028;53.410;6.710;2024-01-30T06:47:38;20.02;;;10.07;;
81619;SDS011;71028;53.410;6.710;2024-01-30T06:50:04;16.90;;;10.15;;
81619;SDS011;71028;53.410;6.710;2024-01-30T06:52:30;14.63;;;9.52;;
81619;SDS011;71028;53.410;6.710;2024-01-30T06:54:56;18.13;;;10.32;;
81619;SDS011;71028;53.410;6.710;2024-01-30T06:57:22;16.25;;;10.05;;
81619;SDS011;71028;53.410;6.710;2024-01-30T06:59:48;18.17;;;9.80;;
81619;SDS011;71028;53.410;6.710;2024-01-30T07:02:14;16.48;;;9.38;;
81619;SDS011;71028;53.410;6.710;2024-01-30T07:04:40;14.07;;;9.07;;
81619;SDS011;71028;53.410;6.710;2024-01-30T07:07:07;17.52;;;9.80;;
81619;SDS011;71028;53.410;6.710;2024-01-30T07:09:37;14.02;;;9.05;;
81619;SDS011;71028;53.410;6.710;2024-01-30T07:12:03;16.70;;;9.23;;
81619;SDS011;71028;53.410;6.710;2024-01-30T07:14:29;17.25;;;9.07;;
81619;SDS011;71028;53.410;6.710;2024-01-30T07:16:55;18.60;;;9.95;;
81619;SDS011;71028;53.410;6.710;2024-01-30T07:19:21;17.85;;;10.05;;
81619;SDS011;71028;53.410;6.710;2024-01-30T07:21:47;15.13;;;10.05;;
81619;SDS011;71028;53.410;6.710;2024-01-30T07:24:13;17.20;;;10.13;;
81619;SDS011;71028;53.410;6.710;2024-01-30T07:26:39;15.60;;;9.45;;
81619;SDS011;71028;53.410;6.710;2024-01-30T07:29:06;18.17;;;8.95;;
81619;SDS011;71028;53.410;6.710;2024-01-30T07:31:32;13.75;;;8.55;;
81619;SDS011;71028;53.410;6.710;2024-01-30T07:33:58;14.40;;;9.40;;
81619;SDS011;71028;53.410;6.710;2024-01-30T07:36:24;16.73;;;9.82;;
81619;SDS011;71028;53.410;6.710;2024-01-30T07:38:50;15.10;;;9.32;;
81619;SDS011;71028;53.410;6.710;2024-01-30T07:41:19;14.25;;;8.95;;
81619;SDS011;71028;53.410;6.710;2024-01-30T07:43:45;15.45;;;9.23;;
81619;SDS011;71028;53.410;6.710;2024-01-30T07:46:11;14.88;;;8.55;;
81619;SDS011;71028;53.410;6.710;2024-01-30T07:48:37;16.33;;;9.32;;
81619;SDS011;71028;53.410;6.710;2024-01-30T07:51:03;17.45;;;10.07;;
81619;SDS011;71028;53.410;6.710;2024-01-30T07:53:29;15.15;;;9.65;;
81619;SDS011;71028;53.410;6.710;2024-01-30T07:55:55;13.82;;;8.90;;
81619;SDS011;71028;53.410;6.710;2024-01-30T07:58:21;14.65;;;8.82;;
81619;SDS011;71028;53.410;6.710;2024-01-30T08:00:48;16.90;;;9.13;;
81619;SDS011;71028;53.410;6.710;2024-01-30T08:03:16;16.13;;;9.25;;
81619;SDS011;71028;53.410;6.710;2024-01-30T08:05:43;18.15;;;10.00;;
81619;SDS011;71028;53.410;6.710;2024-01-30T08:08:09;16.23;;;8.95;;
81619;SDS011;71028;53.410;6.710;2024-01-30T08:10:35;18.77;;;9.27;;
81619;SDS011;71028;53.410;6.710;2024-01-30T08:13:01;13.98;;;9.05;;
81619;SDS011;71028;53.410;6.710;2024-01-30T08:15:27;14.70;;;8.52;;
81619;SDS011;71028;53.410;6.710;2024-01-30T08:17:53;14.98;;;9.60;;
81619;SDS011;71028;53.410;6.710;2024-01-30T08:20:23;18.33;;;9.85;;
81619;SDS011;71028;53.410;6.710;2024-01-30T08:22:49;13.63;;;8.05;;
81619;SDS011;71028;53.410;6.710;2024-01-30T08:25:15;13.95;;;8.35;;
81619;SDS011;71028;53.410;6.710;2024-01-30T08:27:41;15.38;;;9.18;;
81619;SDS011;71028;53.410;6.710;2024-01-30T08:30:07;16.27;;;8.95;;
81619;SDS011;71028;53.410;6.710;2024-01-30T08:32:33;15.20;;;9.43;;
81619;SDS011;71028;53.410;6.710;2024-01-30T08:34:59;16.65;;;9.30;;
81619;SDS011;71028;53.410;6.710;2024-01-30T08:37:28;15.48;;;9.48;;
81619;SDS011;71028;53.410;6.710;2024-01-30T08:39:54;14.35;;;9.00;;
81619;SDS011;71028;53.410;6.710;2024-01-30T08:42:20;16.20;;;9.30;;
81619;SDS011;71028;53.410;6.710;2024-01-30T08:44:47;12.60;;;8.50;;
81619;SDS011;71028;53.410;6.710;2024-01-30T08:47:14;17.48;;;9.57;;
81619;SDS011;71028;53.410;6.710;2024-01-30T08:49:42;15.65;;;8.95;;
81619;SDS011;71028;53.410;6.710;2024-01-30T08:52:09;16.15;;;9.02;;
81619;SDS011;71028;53.410;6.710;2024-01-30T08:54:35;12.23;;;8.52;;
81619;SDS011;71028;53.410;6.710;2024-01-30T08:57:01;15.82;;;8.73;;
81619;SDS011;71028;53.410;6.710;2024-01-30T08:59:27;18.05;;;9.32;;
81619;SDS011;71028;53.410;6.710;2024-01-30T09:01:53;17.52;;;9.30;;
81619;SDS011;71028;53.410;6.710;2024-01-30T09:04:20;13.48;;;8.95;;
81619;SDS011;71028;53.410;6.710;2024-01-30T09:06:47;14.50;;;8.88;;
81619;SDS011;71028;53.410;6.710;2024-01-30T09:09:13;16.25;;;8.68;;
81619;SDS011;71028;53.410;6.710;2024-01-30T09:11:39;17.80;;;8.70;;
81619;SDS011;71028;53.410;6.710;2024-01-30T09:14:05;14.88;;;8.65;;
81619;SDS011;71028;53.410;6.710;2024-01-30T09:16:31;15.15;;;8.40;;
81619;SDS011;71028;53.410;6.710;2024-01-30T09:18:57;18.58;;;8.63;;
81619;SDS011;71028;53.410;6.710;2024-01-30T09:21:24;16.08;;;8.95;;
81619;SDS011;71028;53.410;6.710;2024-01-30T09:23:50;14.43;;;8.25;;
81619;SDS011;71028;53.410;6.710;2024-01-30T09:26:16;14.65;;;8.10;;
81619;SDS011;71028;53.410;6.710;2024-01-30T09:28:42;14.65;;;8.02;;
81619;SDS011;71028;53.410;6.710;2024-01-30T09:31:11;15.07;;;7.85;;
81619;SDS011;71028;53.410;6.710;2024-01-30T09:33:38;15.13;;;8.68;;
81619;SDS011;71028;53.410;6.710;2024-01-30T09:36:04;14.32;;;7.82;;
81619;SDS011;71028;53.410;6.710;2024-01-30T09:38:31;17.80;;;8.75;;
81619;SDS011;71028;53.410;6.710;2024-01-30T09:40:57;14.00;;;8.43;;
81619;SDS011;71028;53.410;6.710;2024-01-30T09:43:30;14.00;;;8.30;;
81619;SDS011;71028;53.410;6.710;2024-01-30T09:45:59;15.63;;;8.68;;
81619;SDS011;71028;53.410;6.710;2024-01-30T09:48:28;13.73;;;8.50;;
81619;SDS011;71028;53.410;6.710;2024-01-30T09:50:55;14.02;;;8.88;;
81619;SDS011;71028;53.410;6.710;2024-01-30T09:53:22;17.70;;;8.57;;
81619;SDS011;71028;53.410;6.710;2024-01-30T09:55:49;13.75;;;7.07;;
81619;SDS011;71028;53.410;6.710;2024-01-30T09:58:16;14.02;;;8.30;;
81619;SDS011;71028;53.410;6.710;2024-01-30T10:00:42;17.02;;;8.85;;
81619;SDS011;71028;53.410;6.710;2024-01-30T10:03:08;14.55;;;8.95;;
81619;SDS011;71028;53.410;6.710;2024-01-30T10:05:35;13.98;;;8.60;;
81619;SDS011;71028;53.410;6.710;2024-01-30T10:08:07;15.02;;;8.57;;
81619;SDS011;71028;53.410;6.710;2024-01-30T10:10:34;17.67;;;8.23;;
81619;SDS011;71028;53.410;6.710;2024-01-30T10:13:00;15.20;;;8.40;;
81619;SDS011;71028;53.410;6.710;2024-01-30T10:15:27;13.13;;;7.93;;
81619;SDS011;71028;53.410;6.710;2024-01-30T10:17:54;17.20;;;8.77;;
81619;SDS011;71028;53.410;6.710;2024-01-30T10:20:20;15.05;;;8.18;;
81619;SDS011;71028;53.410;6.710;2024-01-30T10:22:47;14.07;;;7.90;;
81619;SDS011;71028;53.410;6.710;2024-01-30T10:25:14;15.50;;;8.13;;
81619;SDS011;71028;53.410;6.710;2024-01-30T10:27:40;18.83;;;9.65;;
81619;SDS011;71028;53.410;6.710;2024-01-30T10:30:07;16.05;;;9.30;;
81619;SDS011;71028;53.410;6.710;2024-01-30T10:32:33;18.08;;;9.57;;
81619;SDS011;71028;53.410;6.710;2024-01-30T10:34:59;18.40;;;8.68;;
81619;SDS011;71028;53.410;6.710;2024-01-30T10:37:25;18.98;;;8.43;;
81619;SDS011;71028;53.410;6.710;2024-01-30T10:39:53;16.27;;;8.15;;
81619;SDS011;71028;53.410;6.710;2024-01-30T10:42:23;18.70;;;8.35;;
81619;SDS011;71028;53.410;6.710;2024-01-30T10:47:26;15.05;;;8.60;;
81619;SDS011;71028;53.410;6.710;2024-01-30T10:49:52;15.98;;;8.85;;
81619;SDS011;71028;53.410;6.710;2024-01-30T10:52:19;12.70;;;8.27;;
81619;SDS011;71028;53.410;6.710;2024-01-30T10:54:46;15.25;;;9.20;;
81619;SDS011;71028;53.410;6.710;2024-01-30T10:57:12;15.10;;;8.75;;
81619;SDS011;71028;53.410;6.710;2024-01-30T10:59:39;17.13;;;8.68;;
81619;SDS011;71028;53.410;6.710;2024-01-30T11:02:05;14.65;;;8.23;;
81619;SDS011;71028;53.410;6.710;2024-01-30T11:04:35;15.77;;;9.23;;
81619;SDS011;71028;53.410;6.710;2024-01-30T11:07:01;13.82;;;8.38;;
81619;SDS011;71028;53.410;6.710;2024-01-30T11:09:29;15.65;;;8.27;;
81619;SDS011;71028;53.410;6.710;2024-01-30T11:11:58;16.77;;;8.82;;
81619;SDS011;71028;53.410;6.710;2024-01-30T11:14:29;16.92;;;7.95;;
81619;SDS011;71028;53.410;6.710;2024-01-30T11:16:58;13.77;;;7.50;;
81619;SDS011;71028;53.410;6.710;2024-01-30T11:19:30;13.85;;;7.18;;
81619;SDS011;71028;53.410;6.710;2024-01-30T11:21:56;7.95;;;5.45;;
81619;SDS011;71028;53.410;6.710;2024-01-30T11:24:23;11.20;;;5.53;;
81619;SDS011;71028;53.410;6.710;2024-01-30T11:26:49;11.20;;;6.38;;
81619;SDS011;71028;53.410;6.710;2024-01-30T11:29:16;9.90;;;5.25;;
81619;SDS011;71028;53.410;6.710;2024-01-30T11:31:53;10.52;;;5.70;;
81619;SDS011;71028;53.410;6.710;2024-01-30T11:34:19;10.77;;;6.15;;
81619;SDS011;71028;53.410;6.710;2024-01-30T11:36:47;8.88;;;4.88;;
81619;SDS011;71028;53.410;6.710;2024-01-30T11:39:16;13.07;;;4.68;;
81619;SDS011;71028;53.410;6.710;2024-01-30T11:41:43;8.98;;;5.00;;
81619;SDS011;71028;53.410;6.710;2024-01-30T11:44:10;8.60;;;4.18;;
81619;SDS011;71028;53.410;6.710;2024-01-30T11:46:36;7.43;;;3.42;;
81619;SDS011;71028;53.410;6.710;2024-01-30T11:49:02;8.07;;;4.30;;
81619;SDS011;71028;53.410;6.710;2024-01-30T11:51:30;9.82;;;4.30;;
81619;SDS011;71028;53.410;6.710;2024-01-30T11:53:56;9.80;;;3.95;;
81619;SDS011;71028;53.410;6.710;2024-01-30T11:56:23;8.13;;;4.18;;
81619;SDS011;71028;53.410;6.710;2024-01-30T11:58:51;7.78;;;3.95;;
81619;SDS011;71028;53.410;6.710;2024-01-30T12:01:18;7.57;;;3.33;;
81619;SDS011;71028;53.410;6.710;2024-01-30T12:03:50;8.18;;;2.85;;
81619;SDS011;71028;53.410;6.710;2024-01-30T12:06:17;11.75;;;3.08;;
81619;SDS011;71028;53.410;6.710;2024-01-30T12:08:43;8.27;;;3.47;;
81619;SDS011;71028;53.410;6.710;2024-01-30T12:11:09;10.18;;;3.45;;
81619;SDS011;71028;53.410;6.710;2024-01-30T12:13:35;12.02;;;3.22;;
81619;SDS011;71028;53.410;6.710;2024-01-30T12:16:01;7.13;;;3.65;;
81619;SDS011;71028;53.410;6.710;2024-01-30T12:18:27;7.05;;;2.97;;
81619;SDS011;71028;53.410;6.710;2024-01-30T12:20:57;8.10;;;2.92;;
81619;SDS011;71028;53.410;6.710;2024-01-30T12:23:24;5.22;;;3.05;;
81619;SDS011;71028;53.410;6.710;2024-01-30T12:25:51;7.18;;;2.70;;
81619;SDS011;71028;53.410;6.710;2024-01-30T12:28:17;4.90;;;2.55;;
81619;SDS011;71028;53.410;6.710;2024-01-30T12:30:43;5.28;;;2.25;;
81619;SDS011;71028;53.410;6.710;2024-01-30T12:33:09;6.47;;;3.17;;
81619;SDS011;71028;53.410;6.710;2024-01-30T12:35:35;6.13;;;2.40;;
81619;SDS011;71028;53.410;6.710;2024-01-30T12:38:01;7.88;;;1.90;;
81619;SDS011;71028;53.410;6.710;2024-01-30T12:40:27;6.00;;;1.27;;
81619;SDS011;71028;53.410;6.710;2024-01-30T12:42:53;3.25;;;1.50;;
81619;SDS011;71028;53.410;6.710;2024-01-30T12:45:20;3.17;;;1.50;;
81619;SDS011;71028;53.410;6.710;2024-01-30T12:47:47;2.13;;;1.40;;
81619;SDS011;71028;53.410;6.710;2024-01-30T12:50:13;1.85;;;1.10;;
81619;SDS011;71028;53.410;6.710;2024-01-30T12:52:41;3.58;;;1.10;;
81619;SDS011;71028;53.410;6.710;2024-01-30T12:55:07;2.55;;;1.77;;
81619;SDS011;71028;53.410;6.710;2024-01-30T12:57:33;3.25;;;1.35;;
81619;SDS011;71028;53.410;6.710;2024-01-30T12:59:59;3.85;;;1.38;;
81619;SDS011;71028;53.410;6.710;2024-01-30T13:02:25;4.15;;;1.45;;
81619;SDS011;71028;53.410;6.710;2024-01-30T13:04:55;2.13;;;1.20;;
81619;SDS011;71028;53.410;6.710;2024-01-30T13:07:21;1.23;;;0.88;;
81619;SDS011;71028;53.410;6.710;2024-01-30T13:09:47;2.03;;;0.95;;
81619;SDS011;71028;53.410;6.710;2024-01-30T13:12:13;1.40;;;0.82;;
81619;SDS011;71028;53.410;6.710;2024-01-30T13:14:39;2.38;;;0.90;;
81619;SDS011;71028;53.410;6.710;2024-01-30T13:17:05;2.83;;;0.70;;
81619;SDS011;71028;53.410;6.710;2024-01-30T13:19:31;0.85;;;0.68;;
81619;SDS011;71028;53.410;6.710;2024-01-30T13:21:57;3.58;;;1.35;;
81619;SDS011;71028;53.410;6.710;2024-01-30T13:24:23;2.03;;;1.20;;
81619;SDS011;71028;53.410;6.710;2024-01-30T13:26:49;4.18;;;1.20;;
81619;SDS011;71028;53.410;6.710;2024-01-30T13:29:15;2.00;;;1.17;;
81619;SDS011;71028;53.410;6.710;2024-01-30T13:31:41;2.17;;;1.08;;
81619;SDS011;71028;53.410;6.710;2024-01-30T13:34:09;3.15;;;1.10;;
81619;SDS011;71028;53.410;6.710;2024-01-30T13:36:35;3.50;;;1.10;;
81619;SDS011;71028;53.410;6.710;2024-01-30T13:39:01;2.58;;;1.10;;
81619;SDS011;71028;53.410;6.710;2024-01-30T13:41:27;2.13;;;0.85;;
81619;SDS011;71028;53.410;6.710;2024-01-30T13:43:55;1.58;;;1.02;;
81619;SDS011;71028;53.410;6.710;2024-01-30T13:46:21;3.95;;;1.00;;
81619;SDS011;71028;53.410;6.710;2024-01-30T13:48:47;2.85;;;0.88;;
81619;SDS011;71028;53.410;6.710;2024-01-30T13:51:13;1.23;;;0.80;;
81619;SDS011;71028;53.410;6.710;2024-01-30T13:53:39;2.63;;;1.00;;
81619;SDS011;71028;53.410;6.710;2024-01-30T13:56:05;2.45;;;1.13;;
81619;SDS011;71028;53.410;6.710;2024-01-30T13:58:32;1.80;;;0.90;;
81619;SDS011;71028;53.410;6.710;2024-01-30T14:00:58;6.30;;;1.35;;
81619;SDS011;71028;53.410;6.710;2024-01-30T14:03:24;2.60;;;1.25;;
81619;SDS011;71028;53.410;6.710;2024-01-30T14:05:50;2.92;;;0.90;;
81619;SDS011;71028;53.410;6.710;2024-01-30T14:08:16;3.67;;;1.10;;
81619;SDS011;71028;53.410;6.710;2024-01-30T14:10:42;3.10;;;1.48;;
81619;SDS011;71028;53.410;6.710;2024-01-30T14:13:09;2.55;;;1.30;;
81619;SDS011;71028;53.410;6.710;2024-01-30T14:15:36;2.40;;;1.20;;
81619;SDS011;71028;53.410;6.710;2024-01-30T14:18:02;2.47;;;1.20;;
81619;SDS011;71028;53.410;6.710;2024-01-30T14:20:28;3.03;;;1.30;;
81619;SDS011;71028;53.410;6.710;2024-01-30T14:22:54;3.17;;;1.40;;
81619;SDS011;71028;53.410;6.710;2024-01-30T14:25:20;2.35;;;1.08;;
81619;SDS011;71028;53.410;6.710;2024-01-30T14:27:46;4.57;;;1.20;;